sensor_id;sensor_type;location;lat;lon;timestamp;P1;durP1;ratioP1;P2;durP2;ratioP2
8488;SDS011;4281;45.772;12.852;2022-10-16T00:01:38;78.00;;;64.17;;
8488;SDS011;4281;45.772;12.852;2022-10-16T00:04:08;73.90;;;63.03;;
8488;SDS011;4281;45.772;12.852;2022-10-16T00:06:37;77.37;;;66.93;;
8488;SDS011;4281;45.772;12.852;2022-10-16T00:09:05;72.70;;;62.63;;
8488;SDS011;4281;45.772;12.852;2022-10-16T00:11:35;72.10;;;60.47;;
8488;SDS011;4281;45.772;12.852;2022-10-16T00:14:06;73.20;;;61.87;;
8488;SDS011;4281;45.772;12.852;2022-10-16T00:16:36;73.83;;;63.57;;
8488;SDS011;4281;45.772;12.852;2022-10-16T00:19:06;73.23;;;63.53;;
8488;SDS011;4281;45.772;12.852;2022-10-16T00:21:36;70.13;;;61.17;;
8488;SDS011;4281;45.772;12.852;2022-10-16T00:24:05;68.80;;;61.00;;
8488;SDS011;4281;45.772;12.852;2022-10-16T00:26:36;67.47;;;59.87;;
8488;SDS011;4281;45.772;12.852;2022-10-16T00:29:06;68.70;;;58.67;;
8488;SDS011;4281;45.772;12.852;2022-10-16T00:31:35;73.30;;;64.03;;
8488;SDS011;4281;45.772;12.852;2022-10-16T00:34:03;70.83;;;62.33;;
8488;SDS011;4281;45.772;12.852;2022-10-16T00:36:33;72.47;;;61.57;;
8488;SDS011;4281;45.772;12.852;2022-10-16T00:39:03;67.93;;;58.40;;
8488;SDS011;4281;45.772;12.852;2022-10-16T00:41:32;70.37;;;61.67;;
8488;SDS011;4281;45.772;12.852;2022-10-16T00:44:01;70.30;;;61.87;;
8488;SDS011;4281;45.772;12.852;2022-10-16T00:46:33;73.50;;;62.97;;
8488;SDS011;4281;45.772;12.852;2022-10-16T00:49:06;68.03;;;60.40;;
8488;SDS011;4281;45.772;12.852;2022-10-16T00:51:38;71.83;;;62.17;;
8488;SDS011;4281;45.772;12.852;2022-10-16T00:54:09;73.60;;;60.77;;
8488;SDS011;4281;45.772;12.852;2022-10-16T00:56:40;68.10;;;60.63;;
8488;SDS011;4281;45.772;12.852;2022-10-16T00:59:15;69.73;;;60.40;;
8488;SDS011;4281;45.772;12.852;2022-10-16T01:01:45;72.07;;;62.30;;
8488;SDS011;4281;45.772;12.852;2022-10-16T01:04:13;73.07;;;63.60;;
8488;SDS011;4281;45.772;12.852;2022-10-16T01:06:46;65.07;;;57.27;;
8488;SDS011;4281;45.772;12.852;2022-10-16T01:09:21;70.53;;;61.67;;
8488;SDS011;4281;45.772;12.852;2022-10-16T01:11:56;70.33;;;59.87;;
8488;SDS011;4281;45.772;12.852;2022-10-16T01:14:36;74.30;;;64.07;;
8488;SDS011;4281;45.772;12.852;2022-10-16T01:17:11;74.33;;;63.67;;
8488;SDS011;4281;45.772;12.852;2022-10-16T01:20:00;70.17;;;61.73;;
8488;SDS011;4281;45.772;12.852;2022-10-16T01:22:38;71.17;;;61.90;;
8488;SDS011;4281;45.772;12.852;2022-10-16T01:25:17;71.33;;;62.23;;
8488;SDS011;4281;45.772;12.852;2022-10-16T01:27:54;72.63;;;62.43;;
8488;SDS011;4281;45.772;12.852;2022-10-16T01:30:24;73.07;;;61.53;;
8488;SDS011;4281;45.772;12.852;2022-10-16T01:32:56;74.30;;;63.10;;
8488;SDS011;4281;45.772;12.852;2022-10-16T01:35:29;78.17;;;64.73;;
8488;SDS011;4281;45.772;12.852;2022-10-16T01:38:01;67.57;;;59.87;;
8488;SDS011;4281;45.772;12.852;2022-10-16T01:40:36;67.67;;;58.80;;
8488;SDS011;4281;45.772;12.852;2022-10-16T01:43:11;69.93;;;60.00;;
8488;SDS011;4281;45.772;12.852;2022-10-16T01:45:43;69.60;;;59.47;;
8488;SDS011;4281;45.772;12.852;2022-10-16T01:48:13;71.30;;;61.33;;
8488;SDS011;4281;45.772;12.852;2022-10-16T01:50:49;68.63;;;61.00;;
8488;SDS011;4281;45.772;12.852;2022-10-16T01:53:22;67.77;;;58.60;;
8488;SDS011;4281;45.772;12.852;2022-10-16T01:55:53;73.07;;;60.10;;
8488;SDS011;4281;45.772;12.852;2022-10-16T01:58:24;67.93;;;58.23;;
8488;SDS011;4281;45.772;12.852;2022-10-16T02:00:54;65.30;;;56.93;;
8488;SDS011;4281;45.772;12.852;2022-10-16T02:03:23;63.67;;;55.00;;
8488;SDS011;4281;45.772;12.852;2022-10-16T02:05:52;66.30;;;57.70;;
8488;SDS011;4281;45.772;12.852;2022-10-16T02:08:22;68.13;;;56.57;;
8488;SDS011;4281;45.772;12.852;2022-10-16T02:10:54;66.50;;;57.57;;
8488;SDS011;4281;45.772;12.852;2022-10-16T02:13:26;69.17;;;58.43;;
8488;SDS011;4281;45.772;12.852;2022-10-16T02:15:57;66.47;;;56.63;;
8488;SDS011;4281;45.772;12.852;2022-10-16T02:18:26;67.27;;;58.23;;
8488;SDS011;4281;45.772;12.852;2022-10-16T02:20:59;65.30;;;56.07;;
8488;SDS011;4281;45.772;12.852;2022-10-16T02:23:33;61.10;;;54.47;;
8488;SDS011;4281;45.772;12.852;2022-10-16T02:26:07;62.10;;;54.97;;
8488;SDS011;4281;45.772;12.852;2022-10-16T02:28:42;63.47;;;56.47;;
8488;SDS011;4281;45.772;12.852;2022-10-16T02:31:20;62.17;;;53.77;;
8488;SDS011;4281;45.772;12.852;2022-10-16T02:33:54;60.07;;;52.67;;
8488;SDS011;4281;45.772;12.852;2022-10-16T02:36:25;60.43;;;52.53;;
8488;SDS011;4281;45.772;12.852;2022-10-16T02:38:54;62.47;;;55.80;;
8488;SDS011;4281;45.772;12.852;2022-10-16T02:44:04;62.07;;;54.97;;
8488;SDS011;4281;45.772;12.852;2022-10-16T02:46:32;61.47;;;54.80;;
8488;SDS011;4281;45.772;12.852;2022-10-16T02:49:01;59.77;;;52.63;;
8488;SDS011;4281;45.772;12.852;2022-10-16T02:51:29;59.60;;;53.10;;
8488;SDS011;4281;45.772;12.852;2022-10-16T02:53:57;58.83;;;51.53;;
8488;SDS011;4281;45.772;12.852;2022-10-16T02:56:26;59.70;;;53.07;;
8488;SDS011;4281;45.772;12.852;2022-10-16T02:58:54;61.20;;;53.70;;
8488;SDS011;4281;45.772;12.852;2022-10-16T03:01:24;61.77;;;53.77;;
8488;SDS011;4281;45.772;12.852;2022-10-16T03:03:52;59.97;;;53.10;;
8488;SDS011;4281;45.772;12.852;2022-10-16T03:06:20;61.10;;;54.00;;
8488;SDS011;4281;45.772;12.852;2022-10-16T03:08:49;62.47;;;55.47;;
8488;SDS011;4281;45.772;12.852;2022-10-16T03:11:17;59.00;;;52.20;;
8488;SDS011;4281;45.772;12.852;2022-10-16T03:13:45;59.37;;;51.07;;
8488;SDS011;4281;45.772;12.852;2022-10-16T03:16:13;61.30;;;53.70;;
8488;SDS011;4281;45.772;12.852;2022-10-16T03:18:43;59.67;;;53.27;;
8488;SDS011;4281;45.772;12.852;2022-10-16T03:21:15;57.47;;;51.27;;
8488;SDS011;4281;45.772;12.852;2022-10-16T03:23:44;59.30;;;52.37;;
8488;SDS011;4281;45.772;12.852;2022-10-16T03:26:13;65.47;;;55.17;;
8488;SDS011;4281;45.772;12.852;2022-10-16T03:28:41;59.37;;;52.27;;
8488;SDS011;4281;45.772;12.852;2022-10-16T03:31:09;55.90;;;49.87;;
8488;SDS011;4281;45.772;12.852;2022-10-16T03:33:37;58.67;;;52.40;;
8488;SDS011;4281;45.772;12.852;2022-10-16T03:36:07;57.30;;;51.00;;
8488;SDS011;4281;45.772;12.852;2022-10-16T03:38:35;57.43;;;51.13;;
8488;SDS011;4281;45.772;12.852;2022-10-16T03:41:04;58.00;;;51.40;;
8488;SDS011;4281;45.772;12.852;2022-10-16T03:43:34;57.23;;;50.77;;
8488;SDS011;4281;45.772;12.852;2022-10-16T03:46:02;57.90;;;51.57;;
8488;SDS011;4281;45.772;12.852;2022-10-16T03:48:30;55.00;;;49.03;;
8488;SDS011;4281;45.772;12.852;2022-10-16T03:50:59;58.53;;;52.30;;
8488;SDS011;4281;45.772;12.852;2022-10-16T03:53:31;60.00;;;51.03;;
8488;SDS011;4281;45.772;12.852;2022-10-16T03:55:59;59.77;;;53.03;;
8488;SDS011;4281;45.772;12.852;2022-10-16T03:58:28;60.43;;;52.10;;
8488;SDS011;4281;45.772;12.852;2022-10-16T04:00:56;58.67;;;51.87;;
8488;SDS011;4281;45.772;12.852;2022-10-16T04:03:24;61.27;;;52.13;;
8488;SDS011;4281;45.772;12.852;2022-10-16T04:05:53;59.17;;;52.73;;
8488;SDS011;4281;45.772;12.852;2022-10-16T04:08:23;56.90;;;50.30;;
8488;SDS011;4281;45.772;12.852;2022-10-16T04:10:52;58.67;;;52.17;;
8488;SDS011;4281;45.772;12.852;2022-10-16T04:13:21;55.43;;;49.43;;
8488;SDS011;4281;45.772;12.852;2022-10-16T04:15:49;57.90;;;51.60;;
8488;SDS011;4281;45.772;12.852;2022-10-16T04:18:20;55.97;;;49.97;;
8488;SDS011;4281;45.772;12.852;2022-10-16T04:20:49;55.67;;;49.77;;
8488;SDS011;4281;45.772;12.852;2022-10-16T04:23:17;62.53;;;53.23;;
8488;SDS011;4281;45.772;12.852;2022-10-16T04:25:45;54.77;;;48.87;;
8488;SDS011;4281;45.772;12.852;2022-10-16T04:28:15;57.60;;;50.60;;
8488;SDS011;4281;45.772;12.852;2022-10-16T04:30:44;57.50;;;51.13;;
8488;SDS011;4281;45.772;12.852;2022-10-16T04:33:12;54.67;;;48.83;;
8488;SDS011;4281;45.772;12.852;2022-10-16T04:35:40;54.17;;;48.37;;
8488;SDS011;4281;45.772;12.852;2022-10-16T04:38:09;53.03;;;47.00;;
8488;SDS011;4281;45.772;12.852;2022-10-16T04:40:37;54.83;;;48.90;;
8488;SDS011;4281;45.772;12.852;2022-10-16T04:43:05;57.37;;;51.20;;
8488;SDS011;4281;45.772;12.852;2022-10-16T04:45:35;56.80;;;49.77;;
8488;SDS011;4281;45.772;12.852;2022-10-16T04:48:04;55.00;;;48.87;;
8488;SDS011;4281;45.772;12.852;2022-10-16T04:50:32;54.67;;;47.67;;
8488;SDS011;4281;45.772;12.852;2022-10-16T04:53:00;55.70;;;49.60;;
8488;SDS011;4281;45.772;12.852;2022-10-16T04:55:29;55.03;;;48.90;;
8488;SDS011;4281;45.772;12.852;2022-10-16T04:57:57;52.07;;;46.37;;
8488;SDS011;4281;45.772;12.852;2022-10-16T05:00:26;54.13;;;48.20;;
8488;SDS011;4281;45.772;12.852;2022-10-16T05:02:55;52.27;;;46.57;;
8488;SDS011;4281;45.772;12.852;2022-10-16T05:05:26;51.60;;;45.83;;
8488;SDS011;4281;45.772;12.852;2022-10-16T05:07:54;53.93;;;48.17;;
8488;SDS011;4281;45.772;12.852;2022-10-16T05:10:22;53.57;;;47.73;;
8488;SDS011;4281;45.772;12.852;2022-10-16T05:12:51;52.70;;;46.97;;
8488;SDS011;4281;45.772;12.852;2022-10-16T05:15:19;52.17;;;46.53;;
8488;SDS011;4281;45.772;12.852;2022-10-16T05:17:47;51.93;;;46.43;;
8488;SDS011;4281;45.772;12.852;2022-10-16T05:20:23;52.50;;;46.87;;
8488;SDS011;4281;45.772;12.852;2022-10-16T05:22:51;53.47;;;47.77;;
8488;SDS011;4281;45.772;12.852;2022-10-16T05:25:19;51.33;;;46.00;;
8488;SDS011;4281;45.772;12.852;2022-10-16T05:27:49;51.33;;;45.83;;
8488;SDS011;4281;45.772;12.852;2022-10-16T05:30:17;51.90;;;46.07;;
8488;SDS011;4281;45.772;12.852;2022-10-16T05:32:46;48.67;;;43.57;;
8488;SDS011;4281;45.772;12.852;2022-10-16T05:35:15;48.93;;;43.83;;
8488;SDS011;4281;45.772;12.852;2022-10-16T05:37:46;52.63;;;47.07;;
8488;SDS011;4281;45.772;12.852;2022-10-16T05:40:14;54.57;;;47.87;;
8488;SDS011;4281;45.772;12.852;2022-10-16T05:42:43;51.90;;;46.00;;
8488;SDS011;4281;45.772;12.852;2022-10-16T05:45:12;51.00;;;45.80;;
8488;SDS011;4281;45.772;12.852;2022-10-16T05:47:40;53.17;;;47.40;;
8488;SDS011;4281;45.772;12.852;2022-10-16T05:50:11;49.97;;;44.67;;
8488;SDS011;4281;45.772;12.852;2022-10-16T05:52:39;50.97;;;45.70;;
8488;SDS011;4281;45.772;12.852;2022-10-16T05:55:09;51.83;;;46.33;;
8488;SDS011;4281;45.772;12.852;2022-10-16T05:57:37;54.37;;;48.40;;
8488;SDS011;4281;45.772;12.852;2022-10-16T06:00:06;51.23;;;45.73;;
8488;SDS011;4281;45.772;12.852;2022-10-16T06:02:35;54.47;;;44.77;;
8488;SDS011;4281;45.772;12.852;2022-10-16T06:05:04;58.90;;;48.90;;
8488;SDS011;4281;45.772;12.852;2022-10-16T06:07:34;53.83;;;47.57;;
8488;SDS011;4281;45.772;12.852;2022-10-16T06:10:04;51.57;;;46.13;;
8488;SDS011;4281;45.772;12.852;2022-10-16T06:12:34;51.20;;;45.60;;
8488;SDS011;4281;45.772;12.852;2022-10-16T06:15:03;53.27;;;47.40;;
8488;SDS011;4281;45.772;12.852;2022-10-16T06:17:32;52.77;;;45.03;;
8488;SDS011;4281;45.772;12.852;2022-10-16T06:20:01;50.20;;;45.00;;
8488;SDS011;4281;45.772;12.852;2022-10-16T06:22:30;53.07;;;44.93;;
8488;SDS011;4281;45.772;12.852;2022-10-16T06:24:58;61.23;;;48.87;;
8488;SDS011;4281;45.772;12.852;2022-10-16T06:27:27;54.23;;;47.73;;
8488;SDS011;4281;45.772;12.852;2022-10-16T06:29:56;52.87;;;45.10;;
8488;SDS011;4281;45.772;12.852;2022-10-16T06:32:25;56.17;;;47.33;;
8488;SDS011;4281;45.772;12.852;2022-10-16T06:34:54;53.73;;;46.87;;
8488;SDS011;4281;45.772;12.852;2022-10-16T06:37:23;50.40;;;45.00;;
8488;SDS011;4281;45.772;12.852;2022-10-16T06:39:51;55.80;;;46.83;;
8488;SDS011;4281;45.772;12.852;2022-10-16T06:42:20;48.30;;;43.10;;
8488;SDS011;4281;45.772;12.852;2022-10-16T06:44:48;51.33;;;45.60;;
8488;SDS011;4281;45.772;12.852;2022-10-16T06:47:18;51.77;;;46.17;;
8488;SDS011;4281;45.772;12.852;2022-10-16T06:49:46;50.07;;;44.67;;
8488;SDS011;4281;45.772;12.852;2022-10-16T06:52:19;48.53;;;43.33;;
8488;SDS011;4281;45.772;12.852;2022-10-16T06:54:48;53.87;;;46.73;;
8488;SDS011;4281;45.772;12.852;2022-10-16T06:57:17;48.77;;;43.50;;
8488;SDS011;4281;45.772;12.852;2022-10-16T06:59:46;50.00;;;44.70;;
8488;SDS011;4281;45.772;12.852;2022-10-16T07:02:21;50.03;;;44.87;;
8488;SDS011;4281;45.772;12.852;2022-10-16T07:04:50;49.23;;;44.23;;
8488;SDS011;4281;45.772;12.852;2022-10-16T07:07:19;47.83;;;42.73;;
8488;SDS011;4281;45.772;12.852;2022-10-16T07:09:47;50.37;;;45.07;;
8488;SDS011;4281;45.772;12.852;2022-10-16T07:12:16;48.13;;;43.30;;
8488;SDS011;4281;45.772;12.852;2022-10-16T07:14:44;48.70;;;43.77;;
8488;SDS011;4281;45.772;12.852;2022-10-16T07:17:12;48.00;;;42.97;;
8488;SDS011;4281;45.772;12.852;2022-10-16T07:19:45;49.00;;;43.87;;
8488;SDS011;4281;45.772;12.852;2022-10-16T07:22:16;47.80;;;42.63;;
8488;SDS011;4281;45.772;12.852;2022-10-16T07:24:44;48.13;;;43.07;;
8488;SDS011;4281;45.772;12.852;2022-10-16T07:27:17;48.53;;;43.37;;
8488;SDS011;4281;45.772;12.852;2022-10-16T07:29:48;47.07;;;42.07;;
8488;SDS011;4281;45.772;12.852;2022-10-16T07:32:16;51.87;;;46.43;;
8488;SDS011;4281;45.772;12.852;2022-10-16T07:34:46;49.53;;;44.43;;
8488;SDS011;4281;45.772;12.852;2022-10-16T07:37:14;50.67;;;45.60;;
8488;SDS011;4281;45.772;12.852;2022-10-16T07:39:43;48.63;;;43.53;;
8488;SDS011;4281;45.772;12.852;2022-10-16T07:44:44;49.93;;;44.57;;
8488;SDS011;4281;45.772;12.852;2022-10-16T07:47:13;50.00;;;44.73;;
8488;SDS011;4281;45.772;12.852;2022-10-16T07:49:41;47.23;;;42.27;;
8488;SDS011;4281;45.772;12.852;2022-10-16T07:52:11;50.57;;;45.03;;
8488;SDS011;4281;45.772;12.852;2022-10-16T07:54:39;48.97;;;44.03;;
8488;SDS011;4281;45.772;12.852;2022-10-16T07:57:08;49.50;;;44.30;;
8488;SDS011;4281;45.772;12.852;2022-10-16T07:59:36;48.33;;;43.23;;
8488;SDS011;4281;45.772;12.852;2022-10-16T08:02:05;50.70;;;45.30;;
8488;SDS011;4281;45.772;12.852;2022-10-16T08:04:34;50.37;;;45.17;;
8488;SDS011;4281;45.772;12.852;2022-10-16T08:07:03;51.77;;;46.47;;
8488;SDS011;4281;45.772;12.852;2022-10-16T08:09:32;50.10;;;44.57;;
8488;SDS011;4281;45.772;12.852;2022-10-16T08:12:01;49.47;;;44.40;;
8488;SDS011;4281;45.772;12.852;2022-10-16T08:14:30;51.33;;;45.93;;
8488;SDS011;4281;45.772;12.852;2022-10-16T08:16:59;49.17;;;44.17;;
8488;SDS011;4281;45.772;12.852;2022-10-16T08:19:28;47.60;;;42.73;;
8488;SDS011;4281;45.772;12.852;2022-10-16T08:21:58;48.33;;;43.43;;
8488;SDS011;4281;45.772;12.852;2022-10-16T08:24:27;49.83;;;44.63;;
8488;SDS011;4281;45.772;12.852;2022-10-16T08:27:00;50.50;;;45.13;;
8488;SDS011;4281;45.772;12.852;2022-10-16T08:29:28;51.47;;;46.17;;
8488;SDS011;4281;45.772;12.852;2022-10-16T08:31:57;49.50;;;44.40;;
8488;SDS011;4281;45.772;12.852;2022-10-16T08:34:26;49.90;;;44.87;;
8488;SDS011;4281;45.772;12.852;2022-10-16T08:36:56;51.50;;;46.13;;
8488;SDS011;4281;45.772;12.852;2022-10-16T08:39:24;52.23;;;46.67;;
8488;SDS011;4281;45.772;12.852;2022-10-16T08:45:04;47.07;;;42.20;;
8488;SDS011;4281;45.772;12.852;2022-10-16T08:48:00;52.20;;;46.60;;
8488;SDS011;4281;45.772;12.852;2022-10-16T08:50:41;52.00;;;46.60;;
8488;SDS011;4281;45.772;12.852;2022-10-16T08:53:14;50.17;;;44.90;;
8488;SDS011;4281;45.772;12.852;2022-10-16T08:55:46;54.57;;;49.10;;
8488;SDS011;4281;45.772;12.852;2022-10-16T08:58:21;53.20;;;47.53;;
8488;SDS011;4281;45.772;12.852;2022-10-16T09:01:00;54.17;;;48.50;;
8488;SDS011;4281;45.772;12.852;2022-10-16T09:03:33;51.83;;;46.63;;
8488;SDS011;4281;45.772;12.852;2022-10-16T09:06:17;58.30;;;52.20;;
8488;SDS011;4281;45.772;12.852;2022-10-16T09:09:06;58.07;;;52.03;;
8488;SDS011;4281;45.772;12.852;2022-10-16T09:11:52;57.77;;;51.73;;
8488;SDS011;4281;45.772;12.852;2022-10-16T09:14:38;56.63;;;50.77;;
8488;SDS011;4281;45.772;12.852;2022-10-16T09:17:19;57.50;;;51.60;;
8488;SDS011;4281;45.772;12.852;2022-10-16T09:19:56;58.93;;;52.73;;
8488;SDS011;4281;45.772;12.852;2022-10-16T09:22:36;59.97;;;53.57;;
8488;SDS011;4281;45.772;12.852;2022-10-16T09:25:10;59.70;;;53.43;;
8488;SDS011;4281;45.772;12.852;2022-10-16T09:27:40;61.03;;;54.53;;
8488;SDS011;4281;45.772;12.852;2022-10-16T09:30:10;59.50;;;53.27;;
8488;SDS011;4281;45.772;12.852;2022-10-16T09:32:42;56.13;;;50.23;;
8488;SDS011;4281;45.772;12.852;2022-10-16T09:35:13;56.30;;;50.40;;
8488;SDS011;4281;45.772;12.852;2022-10-16T09:37:44;55.77;;;49.90;;
8488;SDS011;4281;45.772;12.852;2022-10-16T09:40:23;57.10;;;51.03;;
8488;SDS011;4281;45.772;12.852;2022-10-16T09:43:14;53.10;;;47.40;;
8488;SDS011;4281;45.772;12.852;2022-10-16T09:45:57;54.27;;;48.70;;
8488;SDS011;4281;45.772;12.852;2022-10-16T09:48:31;56.60;;;50.63;;
8488;SDS011;4281;45.772;12.852;2022-10-16T09:51:04;55.77;;;49.97;;
8488;SDS011;4281;45.772;12.852;2022-10-16T09:53:38;64.10;;;53.87;;
8488;SDS011;4281;45.772;12.852;2022-10-16T09:56:10;56.73;;;50.60;;
8488;SDS011;4281;45.772;12.852;2022-10-16T09:58:43;57.53;;;50.97;;
8488;SDS011;4281;45.772;12.852;2022-10-16T10:01:17;54.93;;;49.23;;
8488;SDS011;4281;45.772;12.852;2022-10-16T10:03:48;52.30;;;46.93;;
8488;SDS011;4281;45.772;12.852;2022-10-16T10:06:21;54.43;;;48.63;;
8488;SDS011;4281;45.772;12.852;2022-10-16T10:08:55;54.07;;;48.37;;
8488;SDS011;4281;45.772;12.852;2022-10-16T10:11:39;49.10;;;44.10;;
8488;SDS011;4281;45.772;12.852;2022-10-16T10:17:09;49.47;;;44.37;;
8488;SDS011;4281;45.772;12.852;2022-10-16T10:19:42;53.90;;;45.63;;
8488;SDS011;4281;45.772;12.852;2022-10-16T10:22:22;51.47;;;46.20;;
8488;SDS011;4281;45.772;12.852;2022-10-16T10:24:58;47.77;;;42.93;;
8488;SDS011;4281;45.772;12.852;2022-10-16T10:27:42;52.60;;;47.00;;
8488;SDS011;4281;45.772;12.852;2022-10-16T10:30:22;47.73;;;42.93;;
8488;SDS011;4281;45.772;12.852;2022-10-16T10:32:58;50.47;;;45.33;;
8488;SDS011;4281;45.772;12.852;2022-10-16T10:35:42;44.90;;;40.17;;
8488;SDS011;4281;45.772;12.852;2022-10-16T10:38:25;48.77;;;43.77;;
8488;SDS011;4281;45.772;12.852;2022-10-16T10:41:05;50.03;;;45.03;;
8488;SDS011;4281;45.772;12.852;2022-10-16T10:43:48;50.60;;;45.57;;
8488;SDS011;4281;45.772;12.852;2022-10-16T10:46:31;48.33;;;43.47;;
8488;SDS011;4281;45.772;12.852;2022-10-16T10:49:08;48.67;;;43.77;;
8488;SDS011;4281;45.772;12.852;2022-10-16T10:52:23;47.70;;;42.83;;
8488;SDS011;4281;45.772;12.852;2022-10-16T10:55:03;48.20;;;43.47;;
8488;SDS011;4281;45.772;12.852;2022-10-16T10:57:39;47.13;;;42.27;;
8488;SDS011;4281;45.772;12.852;2022-10-16T11:00:16;50.33;;;45.10;;
8488;SDS011;4281;45.772;12.852;2022-10-16T11:02:50;47.77;;;42.80;;
8488;SDS011;4281;45.772;12.852;2022-10-16T11:08:15;48.83;;;44.10;;
8488;SDS011;4281;45.772;12.852;2022-10-16T11:10:49;47.30;;;42.40;;
8488;SDS011;4281;45.772;12.852;2022-10-16T11:13:24;45.50;;;41.13;;
8488;SDS011;4281;45.772;12.852;2022-10-16T11:15:59;44.17;;;39.77;;
8488;SDS011;4281;45.772;12.852;2022-10-16T11:18:33;46.47;;;41.83;;
8488;SDS011;4281;45.772;12.852;2022-10-16T11:21:11;50.03;;;45.03;;
8488;SDS011;4281;45.772;12.852;2022-10-16T11:23:46;48.17;;;43.33;;
8488;SDS011;4281;45.772;12.852;2022-10-16T11:26:35;48.43;;;43.53;;
8488;SDS011;4281;45.772;12.852;2022-10-16T11:29:10;48.10;;;43.30;;
8488;SDS011;4281;45.772;12.852;2022-10-16T11:31:45;47.23;;;42.63;;
8488;SDS011;4281;45.772;12.852;2022-10-16T11:34:21;48.50;;;43.53;;
8488;SDS011;4281;45.772;12.852;2022-10-16T11:36:53;51.73;;;46.53;;
8488;SDS011;4281;45.772;12.852;2022-10-16T11:39:27;48.67;;;43.63;;
8488;SDS011;4281;45.772;12.852;2022-10-16T11:41:59;48.43;;;43.60;;
8488;SDS011;4281;45.772;12.852;2022-10-16T11:44:38;49.77;;;44.87;;
8488;SDS011;4281;45.772;12.852;2022-10-16T11:47:24;50.43;;;45.33;;
8488;SDS011;4281;45.772;12.852;2022-10-16T11:50:20;50.10;;;45.07;;
8488;SDS011;4281;45.772;12.852;2022-10-16T11:52:55;50.73;;;45.47;;
8488;SDS011;4281;45.772;12.852;2022-10-16T11:55:31;48.27;;;43.47;;
8488;SDS011;4281;45.772;12.852;2022-10-16T11:58:13;49.37;;;44.23;;
8488;SDS011;4281;45.772;12.852;2022-10-16T12:00:51;49.80;;;44.50;;
8488;SDS011;4281;45.772;12.852;2022-10-16T12:03:26;49.67;;;44.63;;
8488;SDS011;4281;45.772;12.852;2022-10-16T12:06:20;50.97;;;45.57;;
8488;SDS011;4281;45.772;12.852;2022-10-16T12:08:58;50.40;;;45.30;;
8488;SDS011;4281;45.772;12.852;2022-10-16T12:11:33;49.63;;;44.70;;
8488;SDS011;4281;45.772;12.852;2022-10-16T12:14:04;48.67;;;43.57;;
8488;SDS011;4281;45.772;12.852;2022-10-16T12:16:36;48.97;;;44.00;;
8488;SDS011;4281;45.772;12.852;2022-10-16T12:19:10;47.60;;;42.70;;
8488;SDS011;4281;45.772;12.852;2022-10-16T12:21:40;52.23;;;44.13;;
8488;SDS011;4281;45.772;12.852;2022-10-16T12:24:20;51.37;;;46.17;;
8488;SDS011;4281;45.772;12.852;2022-10-16T12:26:56;48.00;;;43.17;;
8488;SDS011;4281;45.772;12.852;2022-10-16T12:29:28;49.43;;;44.43;;
8488;SDS011;4281;45.772;12.852;2022-10-16T12:32:01;49.60;;;44.70;;
8488;SDS011;4281;45.772;12.852;2022-10-16T12:34:37;49.93;;;44.80;;
8488;SDS011;4281;45.772;12.852;2022-10-16T12:37:08;49.83;;;44.67;;
8488;SDS011;4281;45.772;12.852;2022-10-16T12:39:40;50.13;;;44.93;;
8488;SDS011;4281;45.772;12.852;2022-10-16T12:45:26;48.03;;;42.97;;
8488;SDS011;4281;45.772;12.852;2022-10-16T12:47:58;46.00;;;41.50;;
8488;SDS011;4281;45.772;12.852;2022-10-16T12:50:29;48.57;;;43.67;;
8488;SDS011;4281;45.772;12.852;2022-10-16T12:53:00;48.27;;;43.47;;
8488;SDS011;4281;45.772;12.852;2022-10-16T12:55:31;50.20;;;45.07;;
8488;SDS011;4281;45.772;12.852;2022-10-16T12:58:09;47.80;;;43.00;;
8488;SDS011;4281;45.772;12.852;2022-10-16T13:01:02;49.47;;;44.33;;
8488;SDS011;4281;45.772;12.852;2022-10-16T13:06:46;50.40;;;45.20;;
8488;SDS011;4281;45.772;12.852;2022-10-16T13:09:32;48.93;;;44.07;;
8488;SDS011;4281;45.772;12.852;2022-10-16T13:12:12;52.20;;;46.83;;
8488;SDS011;4281;45.772;12.852;2022-10-16T13:14:57;51.60;;;46.53;;
8488;SDS011;4281;45.772;12.852;2022-10-16T13:17:42;53.00;;;47.47;;
8488;SDS011;4281;45.772;12.852;2022-10-16T13:20:21;54.17;;;48.60;;
8488;SDS011;4281;45.772;12.852;2022-10-16T13:22:57;51.67;;;46.47;;
8488;SDS011;4281;45.772;12.852;2022-10-16T13:25:35;48.80;;;43.73;;
8488;SDS011;4281;45.772;12.852;2022-10-16T13:28:11;48.90;;;44.00;;
8488;SDS011;4281;45.772;12.852;2022-10-16T13:30:41;46.60;;;42.00;;
8488;SDS011;4281;45.772;12.852;2022-10-16T13:33:14;45.23;;;40.53;;
8488;SDS011;4281;45.772;12.852;2022-10-16T13:35:49;46.73;;;41.97;;
8488;SDS011;4281;45.772;12.852;2022-10-16T13:38:19;47.53;;;42.77;;
8488;SDS011;4281;45.772;12.852;2022-10-16T13:40:53;47.80;;;43.07;;
8488;SDS011;4281;45.772;12.852;2022-10-16T13:43:24;47.20;;;42.57;;
8488;SDS011;4281;45.772;12.852;2022-10-16T13:45:56;48.30;;;43.50;;
8488;SDS011;4281;45.772;12.852;2022-10-16T13:48:28;50.23;;;45.10;;
8488;SDS011;4281;45.772;12.852;2022-10-16T13:51:00;47.67;;;42.77;;
8488;SDS011;4281;45.772;12.852;2022-10-16T13:53:31;48.53;;;43.33;;
8488;SDS011;4281;45.772;12.852;2022-10-16T13:56:01;47.93;;;43.13;;
8488;SDS011;4281;45.772;12.852;2022-10-16T13:58:32;47.67;;;42.97;;
8488;SDS011;4281;45.772;12.852;2022-10-16T14:01:01;47.47;;;42.70;;
8488;SDS011;4281;45.772;12.852;2022-10-16T14:03:33;48.97;;;44.13;;
8488;SDS011;4281;45.772;12.852;2022-10-16T14:06:03;50.03;;;45.13;;
8488;SDS011;4281;45.772;12.852;2022-10-16T14:08:40;49.60;;;44.60;;
8488;SDS011;4281;45.772;12.852;2022-10-16T14:11:10;48.97;;;44.20;;
8488;SDS011;4281;45.772;12.852;2022-10-16T14:13:40;46.30;;;41.77;;
8488;SDS011;4281;45.772;12.852;2022-10-16T14:16:16;45.33;;;40.83;;
8488;SDS011;4281;45.772;12.852;2022-10-16T14:18:50;46.90;;;42.50;;
8488;SDS011;4281;45.772;12.852;2022-10-16T14:21:24;51.23;;;45.97;;
8488;SDS011;4281;45.772;12.852;2022-10-16T14:23:54;46.43;;;41.63;;
8488;SDS011;4281;45.772;12.852;2022-10-16T14:26:23;45.60;;;41.20;;
8488;SDS011;4281;45.772;12.852;2022-10-16T14:29:01;46.90;;;42.37;;
8488;SDS011;4281;45.772;12.852;2022-10-16T14:31:37;44.03;;;39.63;;
8488;SDS011;4281;45.772;12.852;2022-10-16T14:36:54;42.83;;;38.63;;
8488;SDS011;4281;45.772;12.852;2022-10-16T14:39:23;44.20;;;39.90;;
8488;SDS011;4281;45.772;12.852;2022-10-16T14:41:55;44.83;;;40.43;;
8488;SDS011;4281;45.772;12.852;2022-10-16T14:44:27;44.40;;;40.20;;
8488;SDS011;4281;45.772;12.852;2022-10-16T14:47:06;45.50;;;41.17;;
8488;SDS011;4281;45.772;12.852;2022-10-16T14:49:38;45.27;;;40.73;;
8488;SDS011;4281;45.772;12.852;2022-10-16T14:52:08;48.67;;;43.77;;
8488;SDS011;4281;45.772;12.852;2022-10-16T14:54:39;48.97;;;44.07;;
8488;SDS011;4281;45.772;12.852;2022-10-16T14:57:15;44.70;;;40.50;;
8488;SDS011;4281;45.772;12.852;2022-10-16T14:59:45;49.37;;;44.57;;
8488;SDS011;4281;45.772;12.852;2022-10-16T15:02:16;46.53;;;41.83;;
8488;SDS011;4281;45.772;12.852;2022-10-16T15:04:51;44.87;;;40.53;;
8488;SDS011;4281;45.772;12.852;2022-10-16T15:07:20;45.90;;;41.43;;
8488;SDS011;4281;45.772;12.852;2022-10-16T15:09:49;49.30;;;44.47;;
8488;SDS011;4281;45.772;12.852;2022-10-16T15:12:17;45.47;;;41.07;;
8488;SDS011;4281;45.772;12.852;2022-10-16T15:14:46;48.13;;;43.23;;
8488;SDS011;4281;45.772;12.852;2022-10-16T15:17:14;47.07;;;42.47;;
8488;SDS011;4281;45.772;12.852;2022-10-16T15:19:47;50.23;;;45.30;;
8488;SDS011;4281;45.772;12.852;2022-10-16T15:22:17;49.83;;;44.87;;
8488;SDS011;4281;45.772;12.852;2022-10-16T15:24:45;51.63;;;46.53;;
8488;SDS011;4281;45.772;12.852;2022-10-16T15:27:13;48.33;;;43.43;;